createdAt,value
2019-02-24T00:01:28.676Z,970.53
2019-02-24T00:03:54.984Z,970.50
2019-02-24T00:06:21.282Z,970.56
2019-02-24T00:08:47.592Z,970.49
2019-02-24T00:11:13.894Z,970.51
2019-02-24T00:13:40.223Z,970.54
2019-02-24T00:16:06.527Z,970.56
2019-02-24T00:18:32.839Z,970.49
2019-02-24T00:20:59.149Z,970.61
2019-02-24T00:23:25.453Z,970.58
2019-02-24T00:25:51.760Z,970.67
2019-02-24T00:28:18.077Z,970.63
2019-02-24T00:30:44.379Z,970.61
2019-02-24T00:33:10.701Z,970.57
2019-02-24T00:35:37.056Z,970.60
2019-02-24T00:38:03.388Z,970.57
2019-02-24T00:40:29.670Z,970.64
2019-02-24T00:42:55.974Z,970.54
2019-02-24T00:45:22.288Z,970.50
2019-02-24T00:47:48.598Z,970.61
2019-02-24T00:50:14.898Z,970.59
2019-02-24T00:52:41.207Z,970.55
2019-02-24T00:55:07.510Z,970.56
2019-02-24T00:57:33.821Z,970.57
2019-02-24T01:00:00.255Z,970.55
2019-02-24T01:02:26.439Z,970.62
2019-02-24T01:04:52.746Z,970.56
2019-02-24T01:07:19.050Z,970.57
2019-02-24T01:09:45.363Z,970.58
2019-02-24T01:12:11.698Z,970.54
2019-02-24T01:14:38.050Z,970.56
2019-02-24T01:17:04.355Z,970.52
2019-02-24T01:19:30.663Z,970.55
2019-02-24T01:21:56.967Z,970.51
2019-02-24T01:24:23.274Z,970.50
2019-02-24T01:26:49.573Z,970.51
2019-02-24T01:29:15.881Z,970.49
2019-02-24T01:31:42.188Z,970.50
2019-02-24T01:34:08.494Z,970.51
2019-02-24T01:36:34.798Z,970.49
2019-02-24T01:39:01.106Z,970.51
2019-02-24T01:41:27.521Z,970.50
2019-02-24T01:43:53.786Z,970.44
2019-02-24T01:46:20.093Z,970.51
2019-02-24T01:48:46.400Z,970.50
2019-02-24T01:51:12.705Z,970.44
2019-02-24T01:53:39.016Z,970.47
2019-02-24T01:56:05.362Z,970.42
2019-02-24T01:58:35.105Z,970.38
2019-02-24T02:00:57.931Z,970.47
2019-02-24T02:03:24.258Z,970.37
2019-02-24T02:05:50.567Z,970.45
2019-02-24T02:08:16.868Z,970.35
2019-02-24T02:10:43.171Z,970.32
2019-02-24T02:13:09.530Z,970.29
2019-02-24T02:15:35.806Z,970.21
2019-02-24T02:18:02.103Z,970.15
2019-02-24T02:20:28.414Z,970.12
2019-02-24T02:22:54.723Z,970.11
2019-02-24T02:25:21.033Z,970.13
2019-02-24T02:27:47.335Z,970.07
2019-02-24T02:30:13.644Z,970.12
2019-02-24T02:32:39.978Z,970.08
2019-02-24T02:35:06.263Z,970.13
2019-02-24T02:37:32.580Z,970.06
2019-02-24T02:39:58.888Z,970.04
2019-02-24T02:42:25.199Z,970.07
2019-02-24T02:44:51.498Z,970.08
2019-02-24T02:47:17.826Z,970.08
2019-02-24T02:49:44.132Z,970.11
2019-02-24T02:52:10.992Z,970.15
2019-02-24T02:54:37.317Z,970.10
2019-02-24T02:57:03.559Z,970.17
2019-02-24T02:59:29.862Z,970.17
2019-02-24T03:01:56.167Z,970.13
2019-02-24T03:04:22.490Z,970.16
2019-02-24T03:06:48.795Z,970.16
2019-02-24T03:09:15.104Z,970.14
2019-02-24T03:11:41.409Z,970.08
2019-02-24T03:14:07.736Z,970.16
2019-02-24T03:16:34.045Z,970.10
2019-02-24T03:19:00.350Z,970.16
2019-02-24T03:21:26.659Z,970.10
2019-02-24T03:23:52.959Z,970.18
2019-02-24T03:26:19.357Z,970.19
2019-02-24T03:28:45.658Z,970.22
2019-02-24T03:31:11.989Z,970.21
2019-02-24T03:33:38.293Z,970.17
2019-02-24T03:36:04.590Z,970.13
2019-02-24T03:38:30.948Z,970.13
2019-02-24T03:40:57.252Z,970.13
2019-02-24T03:43:23.597Z,970.16
2019-02-24T03:45:49.873Z,970.09
2019-02-24T03:48:16.199Z,970.16
2019-02-24T03:50:42.500Z,970.09
2019-02-24T03:53:08.806Z,970.05
2019-02-24T03:55:35.119Z,970.06
2019-02-24T04:00:27.503Z,970.09
2019-02-24T04:02:53.812Z,969.99
2019-02-24T04:05:20.120Z,969.99
2019-02-24T04:07:46.428Z,969.99
2019-02-24T04:10:12.814Z,970.03
2019-02-24T04:12:39.114Z,969.99
2019-02-24T04:15:05.419Z,970.05
2019-02-24T04:17:31.724Z,969.97
2019-02-24T04:19:58.123Z,970.01
2019-02-24T04:22:24.430Z,970.00
2019-02-24T04:24:50.755Z,970.00
2019-02-24T04:27:17.068Z,970.03
2019-02-24T04:29:43.368Z,969.97
2019-02-24T04:32:09.676Z,969.95
2019-02-24T04:34:35.985Z,969.95
2019-02-24T04:37:02.291Z,970.00
2019-02-24T04:39:28.596Z,969.97
2019-02-24T04:41:54.904Z,969.88
2019-02-24T04:44:21.207Z,969.94
2019-02-24T04:46:47.516Z,969.89
2019-02-24T04:49:13.824Z,969.82
2019-02-24T04:51:40.130Z,969.81
2019-02-24T04:54:06.430Z,969.84
2019-02-24T04:56:32.736Z,969.85
2019-02-24T04:58:59.038Z,969.88
2019-02-24T05:01:25.350Z,969.91
2019-02-24T05:03:51.653Z,969.90
2019-02-24T05:06:17.956Z,970.05
2019-02-24T05:08:44.279Z,970.09
2019-02-24T05:11:10.588Z,970.19
2019-02-24T05:13:36.895Z,970.27
2019-02-24T05:16:03.208Z,970.25
2019-02-24T05:18:29.499Z,970.34
2019-02-24T05:20:55.802Z,970.37
2019-02-24T05:23:22.111Z,970.40
2019-02-24T05:25:48.444Z,970.40
2019-02-24T05:28:14.756Z,970.43
2019-02-24T05:30:41.060Z,970.47
2019-02-24T05:33:07.368Z,970.50
2019-02-24T05:35:33.672Z,970.45
2019-02-24T05:37:59.983Z,970.47
2019-02-24T05:40:26.295Z,970.52
2019-02-24T05:42:52.598Z,970.42
2019-02-24T05:45:18.906Z,970.49
2019-02-24T05:47:45.217Z,970.57
2019-02-24T05:50:11.523Z,970.49
2019-02-24T05:52:37.834Z,970.59
2019-02-24T05:55:04.153Z,970.59
2019-02-24T05:57:30.463Z,970.55
2019-02-24T05:59:56.769Z,970.53
2019-02-24T06:02:23.087Z,970.54
2019-02-24T06:04:49.394Z,970.64
2019-02-24T06:07:15.731Z,970.64
2019-02-24T06:09:42.036Z,970.60
2019-02-24T06:12:08.342Z,970.53
2019-02-24T06:14:34.705Z,970.58
2019-02-24T06:17:01.009Z,970.66
2019-02-24T06:19:27.354Z,970.65
2019-02-24T06:21:53.676Z,970.67
2019-02-24T06:24:19.994Z,970.62
2019-02-24T06:26:46.297Z,970.67
2019-02-24T06:29:12.609Z,970.66
2019-02-24T06:31:38.911Z,970.67
2019-02-24T06:34:05.220Z,970.65
2019-02-24T06:36:31.547Z,970.67
2019-02-24T06:38:57.856Z,970.69
2019-02-24T06:41:24.161Z,970.67
2019-02-24T06:43:50.469Z,970.73
2019-02-24T06:46:16.788Z,970.67
2019-02-24T06:48:43.090Z,970.72
2019-02-24T06:51:09.424Z,970.76
2019-02-24T06:53:35.715Z,970.69
2019-02-24T06:56:02.032Z,970.74
2019-02-24T06:58:28.348Z,970.83
2019-02-24T07:00:54.804Z,970.76
2019-02-24T07:03:21.114Z,970.84
2019-02-24T07:05:47.428Z,970.82
2019-02-24T07:08:13.729Z,970.87
2019-02-24T07:10:40.047Z,970.94
2019-02-24T07:13:06.358Z,970.88
2019-02-24T07:15:32.691Z,970.92
2019-02-24T07:17:59.002Z,970.88
2019-02-24T07:20:25.308Z,970.86
2019-02-24T07:22:51.624Z,970.87
2019-02-24T07:25:17.937Z,970.82
2019-02-24T07:27:44.252Z,970.78
2019-02-24T07:30:10.582Z,970.82
2019-02-24T07:32:36.925Z,970.83
2019-02-24T07:35:03.259Z,970.80
2019-02-24T07:37:29.570Z,970.86
2019-02-24T07:39:55.882Z,970.84
2019-02-24T07:42:22.194Z,970.91
2019-02-24T07:44:48.500Z,970.89
2019-02-24T07:47:14.810Z,970.86
2019-02-24T07:49:41.120Z,970.90
2019-02-24T07:52:07.430Z,970.74
2019-02-24T07:54:33.740Z,970.91
2019-02-24T07:57:00.054Z,970.85
2019-02-24T07:59:26.367Z,970.80
2019-02-24T08:01:52.679Z,970.85
2019-02-24T08:04:18.994Z,970.81
2019-02-24T08:06:45.304Z,970.83
2019-02-24T08:09:11.618Z,970.84
2019-02-24T08:11:37.925Z,970.70
2019-02-24T08:14:04.240Z,970.74
2019-02-24T08:16:30.600Z,970.74
2019-02-24T08:18:56.927Z,970.76
2019-02-24T08:21:23.240Z,970.78
2019-02-24T08:23:49.557Z,970.75
2019-02-24T08:26:15.891Z,970.68
2019-02-24T08:28:42.203Z,970.65
2019-02-24T08:31:08.521Z,970.71
2019-02-24T08:33:34.839Z,970.73
2019-02-24T08:36:01.152Z,970.76
2019-02-24T08:38:27.463Z,970.78
2019-02-24T08:40:55.083Z,970.71
2019-02-24T08:43:20.086Z,970.74
2019-02-24T08:45:46.398Z,970.73
2019-02-24T08:48:12.705Z,970.69
2019-02-24T08:50:39.024Z,970.72
2019-02-24T08:53:05.328Z,970.55
2019-02-24T08:55:31.643Z,970.51
2019-02-24T08:57:57.950Z,970.51
2019-02-24T09:00:24.261Z,970.54
2019-02-24T09:02:52.440Z,970.50
2019-02-24T09:05:16.875Z,970.51
2019-02-24T09:07:43.204Z,970.57
2019-02-24T09:10:09.518Z,970.62
2019-02-24T09:12:35.889Z,970.44
2019-02-24T09:15:02.205Z,970.34
2019-02-24T09:17:28.515Z,970.43
2019-02-24T09:19:54.826Z,970.44
2019-02-24T09:22:21.137Z,970.43
2019-02-24T09:24:47.459Z,970.43
2019-02-24T09:27:13.769Z,970.32
2019-02-24T09:29:40.076Z,970.28
2019-02-24T09:32:06.388Z,970.38
2019-02-24T09:34:32.692Z,970.37
2019-02-24T09:36:59.017Z,970.37
2019-02-24T09:39:25.320Z,970.34
2019-02-24T09:41:51.719Z,970.28
2019-02-24T09:44:18.042Z,970.26
2019-02-24T09:46:44.357Z,970.30
2019-02-24T09:49:10.666Z,970.29
2019-02-24T09:51:36.975Z,970.22
2019-02-24T09:54:03.299Z,970.23
2019-02-24T09:56:29.611Z,970.24
2019-02-24T09:58:55.917Z,970.11
2019-02-24T10:01:22.233Z,970.06
2019-02-24T10:03:48.536Z,970.13
2019-02-24T10:06:14.849Z,970.13
2019-02-24T10:08:41.153Z,970.00
2019-02-24T10:11:07.471Z,969.99
2019-02-24T10:13:33.812Z,969.90
2019-02-24T10:16:00.128Z,969.83
2019-02-24T10:18:26.433Z,969.79
2019-02-24T10:20:52.753Z,969.77
2019-02-24T10:23:19.048Z,969.70
2019-02-24T10:25:45.355Z,969.63
2019-02-24T10:28:11.667Z,969.78
2019-02-24T10:30:37.983Z,969.56
2019-02-24T10:33:04.296Z,969.65
2019-02-24T10:35:30.606Z,969.59
2019-02-24T10:37:56.923Z,969.51
2019-02-24T10:40:23.229Z,969.59
2019-02-24T10:42:49.541Z,969.55
2019-02-24T10:45:15.847Z,969.44
2019-02-24T10:47:42.174Z,969.51
2019-02-24T10:50:08.473Z,969.47
2019-02-24T10:52:34.782Z,969.54
2019-02-24T10:55:01.093Z,969.59
2019-02-24T10:57:27.399Z,969.53
2019-02-24T10:59:53.727Z,969.41
2019-02-24T11:02:20.062Z,969.46
2019-02-24T11:04:46.368Z,969.43
2019-02-24T11:07:12.676Z,969.43
2019-02-24T11:09:39.003Z,969.34
2019-02-24T11:12:05.313Z,969.30
2019-02-24T11:14:31.621Z,969.22
2019-02-24T11:16:57.926Z,969.23
2019-02-24T11:19:24.241Z,969.17
2019-02-24T11:21:50.541Z,969.10
2019-02-24T11:24:16.895Z,969.18
2019-02-24T11:26:43.212Z,969.22
2019-02-24T11:29:09.514Z,969.19
2019-02-24T11:31:38.420Z,969.08
2019-02-24T11:34:02.138Z,969.03
2019-02-24T11:36:28.586Z,969.00
2019-02-24T11:38:54.864Z,969.00
2019-02-24T11:41:21.257Z,969.02
2019-02-24T11:43:47.556Z,968.93
2019-02-24T11:46:14.049Z,968.93
2019-02-24T11:48:40.461Z,968.91
2019-02-24T11:51:06.802Z,968.90
2019-02-24T11:53:33.293Z,968.82
2019-02-24T11:55:59.598Z,968.76
2019-02-24T11:58:26.109Z,968.70
2019-02-24T12:00:52.512Z,968.71
2019-02-24T12:03:18.847Z,968.65
2019-02-24T12:05:45.184Z,968.65
2019-02-24T12:08:11.896Z,968.62
2019-02-24T12:10:39.012Z,968.58
2019-02-24T12:13:09.097Z,968.58
2019-02-24T12:15:35.372Z,968.53
2019-02-24T12:18:01.683Z,968.50
2019-02-24T12:20:27.999Z,968.45
2019-02-24T12:22:54.404Z,968.52
2019-02-24T12:25:20.727Z,968.52
2019-02-24T12:27:47.029Z,968.57
2019-02-24T12:30:13.336Z,968.57
2019-02-24T12:32:39.677Z,968.48
2019-02-24T12:35:05.979Z,968.49
2019-02-24T12:37:32.405Z,968.52
2019-02-24T12:39:58.647Z,968.53
2019-02-24T12:42:24.955Z,968.52
2019-02-24T12:44:51.259Z,968.53
2019-02-24T12:47:17.603Z,968.53
2019-02-24T12:49:43.910Z,968.54
2019-02-24T12:52:10.212Z,968.49
2019-02-24T12:54:36.524Z,968.52
2019-02-24T12:57:02.833Z,968.35
2019-02-24T12:59:29.146Z,968.40
2019-02-24T13:01:55.451Z,968.45
2019-02-24T13:04:21.766Z,968.51
2019-02-24T13:06:48.077Z,968.50
2019-02-24T13:09:14.389Z,968.44
2019-02-24T13:11:40.716Z,968.44
2019-02-24T13:14:07.029Z,968.53
2019-02-24T13:16:33.338Z,968.42
2019-02-24T13:18:59.665Z,968.46
2019-02-24T13:21:25.964Z,968.47
2019-02-24T13:23:52.272Z,968.47
2019-02-24T13:26:18.582Z,968.43
2019-02-24T13:28:50.461Z,968.42
2019-02-24T13:31:11.242Z,968.40
2019-02-24T13:33:37.548Z,968.40
2019-02-24T13:36:03.866Z,968.43
2019-02-24T13:38:30.173Z,968.45
2019-02-24T13:40:56.800Z,968.39
2019-02-24T13:43:23.117Z,968.36
2019-02-24T13:45:49.412Z,968.39
2019-02-24T13:48:15.717Z,968.37
2019-02-24T13:50:42.023Z,968.42
2019-02-24T13:53:08.353Z,968.43
2019-02-24T13:55:34.659Z,968.42
2019-02-24T13:58:00.973Z,968.40
2019-02-24T14:00:27.281Z,968.41
2019-02-24T14:05:39.965Z,968.48
2019-02-24T14:08:06.296Z,968.36
2019-02-24T14:10:32.605Z,968.37
2019-02-24T14:12:59.035Z,968.40
2019-02-24T14:15:25.227Z,968.35
2019-02-24T14:17:51.540Z,968.37
2019-02-24T14:20:20.058Z,968.32
2019-02-24T14:22:46.370Z,968.35
2019-02-24T14:25:12.694Z,968.33
2019-02-24T14:27:39.007Z,968.42
2019-02-24T14:30:05.313Z,968.38
2019-02-24T14:32:33.133Z,968.39
2019-02-24T14:34:57.946Z,968.45
2019-02-24T14:37:24.262Z,968.43
2019-02-24T14:39:50.588Z,968.43
2019-02-24T14:42:16.907Z,968.44
2019-02-24T14:44:43.218Z,968.40
2019-02-24T14:47:09.526Z,968.38
2019-02-24T14:49:35.832Z,968.39
2019-02-24T14:52:02.147Z,968.40
2019-02-24T14:54:28.457Z,968.39
2019-02-24T14:56:54.769Z,968.39
2019-02-24T14:59:21.075Z,968.41
2019-02-24T15:01:47.387Z,968.40
2019-02-24T15:04:13.700Z,968.37
2019-02-24T15:06:40.015Z,968.36
2019-02-24T15:09:06.329Z,968.31
2019-02-24T15:11:32.642Z,968.31
2019-02-24T15:13:58.953Z,968.30
2019-02-24T15:16:25.263Z,968.31
2019-02-24T15:18:51.575Z,968.29
2019-02-24T15:21:17.930Z,968.32
2019-02-24T15:23:44.539Z,968.30
2019-02-24T15:26:10.840Z,968.37
2019-02-24T15:28:37.151Z,968.41
2019-02-24T15:31:03.455Z,968.36
2019-02-24T15:33:29.762Z,968.41
2019-02-24T15:35:56.069Z,968.28
2019-02-24T15:38:22.393Z,968.39
2019-02-24T15:40:48.699Z,968.43
2019-02-24T15:43:15.022Z,968.31
2019-02-24T15:45:41.332Z,968.35
2019-02-24T15:48:07.641Z,968.29
2019-02-24T15:50:33.948Z,968.34
2019-02-24T15:53:00.259Z,968.34
2019-02-24T15:55:29.029Z,968.41
2019-02-24T15:57:55.425Z,968.42
2019-02-24T16:00:21.800Z,968.44
2019-02-24T16:02:48.135Z,968.45
2019-02-24T16:05:14.455Z,968.42
2019-02-24T16:07:40.781Z,968.41
2019-02-24T16:10:07.112Z,968.45
2019-02-24T16:12:33.425Z,968.38
2019-02-24T16:14:59.766Z,968.44
2019-02-24T16:17:26.205Z,968.46
2019-02-24T16:19:52.535Z,968.49
2019-02-24T16:22:18.836Z,968.54
2019-02-24T16:24:45.143Z,968.52
2019-02-24T16:27:11.447Z,968.58
2019-02-24T16:29:37.759Z,968.59
2019-02-24T16:32:04.088Z,968.60
2019-02-24T16:34:30.402Z,968.63
2019-02-24T16:36:56.719Z,968.61
2019-02-24T16:39:23.023Z,968.64
2019-02-24T16:41:49.343Z,968.63
2019-02-24T16:44:15.663Z,968.69
2019-02-24T16:46:41.976Z,968.72
2019-02-24T16:49:08.284Z,968.73
2019-02-24T16:51:34.599Z,968.81
2019-02-24T16:54:00.905Z,968.79
2019-02-24T16:56:27.237Z,968.78
2019-02-24T16:58:53.540Z,968.80
2019-02-24T17:01:19.858Z,968.88
2019-02-24T17:03:46.170Z,968.83
2019-02-24T17:06:12.479Z,968.75
2019-02-24T17:08:38.784Z,968.77
2019-02-24T17:11:07.644Z,968.72
2019-02-24T17:13:31.399Z,968.74
2019-02-24T17:15:57.705Z,968.73
2019-02-24T17:18:24.016Z,968.75
2019-02-24T17:20:50.339Z,968.70
2019-02-24T17:23:16.644Z,968.69
2019-02-24T17:25:42.952Z,968.71
2019-02-24T17:28:09.262Z,968.67
2019-02-24T17:30:35.571Z,968.69
2019-02-24T17:33:01.876Z,968.66
2019-02-24T17:35:28.185Z,968.72
2019-02-24T17:37:54.505Z,968.69
2019-02-24T17:40:20.817Z,968.62
2019-02-24T17:42:47.121Z,968.67
2019-02-24T17:45:13.431Z,968.68
2019-02-24T17:47:39.743Z,968.73
2019-02-24T17:50:06.052Z,968.77
2019-02-24T17:52:32.707Z,968.72
2019-02-24T17:54:59.024Z,968.76
2019-02-24T17:57:28.014Z,968.79
2019-02-24T17:59:54.368Z,968.82
2019-02-24T18:02:22.656Z,968.88
2019-02-24T18:04:48.983Z,968.85
2019-02-24T18:07:15.295Z,968.80
2019-02-24T18:09:41.716Z,968.88
2019-02-24T18:12:08.069Z,968.89
2019-02-24T18:14:34.378Z,968.98
2019-02-24T18:17:00.744Z,969.01
2019-02-24T18:19:27.052Z,969.03
2019-02-24T18:21:53.357Z,968.99
2019-02-24T18:24:19.681Z,968.98
2019-02-24T18:26:46.012Z,968.92
2019-02-24T18:29:12.327Z,968.88
2019-02-24T18:31:38.642Z,968.94
2019-02-24T18:34:04.949Z,968.95
2019-02-24T18:36:31.265Z,968.86
2019-02-24T18:38:57.569Z,968.87
2019-02-24T18:41:23.901Z,968.93
2019-02-24T18:43:50.209Z,968.96
2019-02-24T18:46:16.518Z,968.99
2019-02-24T18:48:42.830Z,968.99
2019-02-24T18:51:09.166Z,968.95
2019-02-24T18:53:35.491Z,969.02
2019-02-24T18:56:01.806Z,969.01
2019-02-24T18:58:28.113Z,969.00
2019-02-24T19:00:54.425Z,968.94
2019-02-24T19:03:20.741Z,968.95
2019-02-24T19:05:49.253Z,969.01
2019-02-24T19:08:15.578Z,969.06
2019-02-24T19:10:41.885Z,969.08
2019-02-24T19:13:08.193Z,969.10
2019-02-24T19:15:34.510Z,969.04
2019-02-24T19:18:00.845Z,969.09
2019-02-24T19:20:28.185Z,969.05
2019-02-24T19:22:54.497Z,969.09
2019-02-24T19:25:23.123Z,969.05
2019-02-24T19:27:49.445Z,969.08
2019-02-24T19:30:15.769Z,969.12
2019-02-24T19:32:42.073Z,969.13
2019-02-24T19:35:08.394Z,969.11
2019-02-24T19:37:34.704Z,969.06
2019-02-24T19:40:01.058Z,969.05
2019-02-24T19:42:27.382Z,969.08
2019-02-24T19:44:56.095Z,969.07
2019-02-24T19:47:22.410Z,969.07
2019-02-24T19:49:48.749Z,969.01
2019-02-24T19:52:15.094Z,969.00
2019-02-24T19:54:41.406Z,968.97
2019-02-24T19:57:07.724Z,968.93
2019-02-24T19:59:34.034Z,968.90
2019-02-24T20:02:00.367Z,968.88
2019-02-24T20:04:26.687Z,968.95
2019-02-24T20:06:52.993Z,968.92
2019-02-24T20:09:22.085Z,968.91
2019-02-24T20:11:48.395Z,968.85
2019-02-24T20:14:14.710Z,968.88
2019-02-24T20:16:41.025Z,968.94
2019-02-24T20:19:07.339Z,968.91
2019-02-24T20:21:33.654Z,968.95
2019-02-24T20:23:59.975Z,968.99
2019-02-24T20:26:26.303Z,968.97
2019-02-24T20:28:52.601Z,968.94
2019-02-24T20:31:18.919Z,968.95
2019-02-24T20:33:47.721Z,969.00
2019-02-24T20:36:14.034Z,969.01
2019-02-24T20:38:42.755Z,969.06
2019-02-24T20:41:09.072Z,968.99
2019-02-24T20:43:35.383Z,968.92
2019-02-24T20:46:01.868Z,968.85
2019-02-24T20:48:28.214Z,968.91
2019-02-24T20:50:54.541Z,968.97
2019-02-24T20:53:20.895Z,969.01
2019-02-24T20:55:47.275Z,968.95
2019-02-24T20:58:13.549Z,968.96
2019-02-24T21:00:39.977Z,968.92
2019-02-24T21:03:06.298Z,968.97
2019-02-24T21:05:32.627Z,968.89
2019-02-24T21:07:58.934Z,968.95
2019-02-24T21:10:25.242Z,968.92
2019-02-24T21:12:51.602Z,968.90
2019-02-24T21:15:17.925Z,968.82
2019-02-24T21:17:44.246Z,968.87
2019-02-24T21:20:10.551Z,968.87
2019-02-24T21:22:36.861Z,968.82
2019-02-24T21:25:03.179Z,968.80
2019-02-24T21:27:29.495Z,968.86
2019-02-24T21:29:55.838Z,968.81
2019-02-24T21:32:22.143Z,968.79
2019-02-24T21:34:48.462Z,968.77
2019-02-24T21:37:14.812Z,968.77
2019-02-24T21:39:41.141Z,968.76
2019-02-24T21:42:07.452Z,968.73
2019-02-24T21:44:33.768Z,968.79
2019-02-24T21:47:00.077Z,968.80
2019-02-24T21:49:26.415Z,968.79
2019-02-24T21:51:53.403Z,968.80
2019-02-24T21:54:19.712Z,968.76
2019-02-24T21:56:46.014Z,968.88
2019-02-24T21:59:12.326Z,968.88
2019-02-24T22:01:40.610Z,968.87
2019-02-24T22:04:04.945Z,968.92
2019-02-24T22:06:31.268Z,968.91
2019-02-24T22:08:57.584Z,968.95
2019-02-24T22:11:23.935Z,968.93
2019-02-24T22:13:50.243Z,968.92
2019-02-24T22:16:16.552Z,968.89
2019-02-24T22:18:42.859Z,968.92
2019-02-24T22:21:09.168Z,968.89
2019-02-24T22:23:35.475Z,968.90
2019-02-24T22:26:01.779Z,968.96
2019-02-24T22:28:28.094Z,968.90
2019-02-24T22:30:54.401Z,968.92
2019-02-24T22:33:20.711Z,968.93
2019-02-24T22:35:47.016Z,968.91
2019-02-24T22:38:13.328Z,968.96
2019-02-24T22:40:39.640Z,968.91
2019-02-24T22:43:05.948Z,968.96
2019-02-24T22:45:32.262Z,968.99
2019-02-24T22:47:58.573Z,969.07
2019-02-24T22:50:24.894Z,968.99
2019-02-24T22:52:51.196Z,969.18
2019-02-24T22:55:17.511Z,969.09
2019-02-24T22:57:43.818Z,969.08
2019-02-24T23:00:10.131Z,969.08
2019-02-24T23:02:36.435Z,969.03
2019-02-24T23:05:02.746Z,969.05
2019-02-24T23:07:29.052Z,969.04
2019-02-24T23:09:55.357Z,969.03
2019-02-24T23:12:21.669Z,969.01
2019-02-24T23:14:47.974Z,969.06
2019-02-24T23:17:14.283Z,969.09
2019-02-24T23:19:40.602Z,969.03
2019-02-24T23:22:06.920Z,969.02
2019-02-24T23:24:33.229Z,968.96
2019-02-24T23:26:59.597Z,968.95
2019-02-24T23:29:25.900Z,968.90
2019-02-24T23:31:52.217Z,968.82
2019-02-24T23:34:18.529Z,968.89
2019-02-24T23:36:44.836Z,968.91
2019-02-24T23:39:11.149Z,968.91
2019-02-24T23:41:37.459Z,968.94
2019-02-24T23:44:03.766Z,968.99
2019-02-24T23:46:30.070Z,968.96
2019-02-24T23:48:56.373Z,968.95
2019-02-24T23:51:22.680Z,968.94
2019-02-24T23:53:48.995Z,968.91
2019-02-24T23:56:15.302Z,969.00
2019-02-24T23:58:41.612Z,968.99
